sensor_id;sensor_type;location;lat;lon;timestamp;pressure;altitude;pressure_sealevel;temperature
22828;BMP180;11580;52.562;13.418;2023-08-01T00:01:44;99268.00;;;23.20
22828;BMP180;11580;52.562;13.418;2023-08-01T00:04:11;99260.00;;;23.10
22828;BMP180;11580;52.562;13.418;2023-08-01T00:06:38;99259.00;;;23.10
22828;BMP180;11580;52.562;13.418;2023-08-01T00:09:05;99259.00;;;23.10
22828;BMP180;11580;52.562;13.418;2023-08-01T00:11:33;99253.00;;;23.10
22828;BMP180;11580;52.562;13.418;2023-08-01T00:14:00;99253.00;;;23.10
22828;BMP180;11580;52.562;13.418;2023-08-01T00:16:28;99247.00;;;23.10
22828;BMP180;11580;52.562;13.418;2023-08-01T00:18:55;99242.00;;;23.00
22828;BMP180;11580;52.562;13.418;2023-08-01T00:21:22;99231.00;;;23.00
22828;BMP180;11580;52.562;13.418;2023-08-01T00:23:49;99236.00;;;23.00
22828;BMP180;11580;52.562;13.418;2023-08-01T00:26:17;99229.00;;;23.00
22828;BMP180;11580;52.562;13.418;2023-08-01T00:28:46;99225.00;;;22.90
22828;BMP180;11580;52.562;13.418;2023-08-01T00:31:13;99226.00;;;22.90
22828;BMP180;11580;52.562;13.418;2023-08-01T00:33:40;99222.00;;;22.90
22828;BMP180;11580;52.562;13.418;2023-08-01T00:36:07;99223.00;;;22.80
22828;BMP180;11580;52.562;13.418;2023-08-01T00:38:37;99210.00;;;22.80
22828;BMP180;11580;52.562;13.418;2023-08-01T00:41:04;99199.00;;;22.70
22828;BMP180;11580;52.562;13.418;2023-08-01T00:43:31;99202.00;;;22.70
22828;BMP180;11580;52.562;13.418;2023-08-01T00:46:03;99187.00;;;22.60
22828;BMP180;11580;52.562;13.418;2023-08-01T00:48:31;99187.00;;;22.50
22828;BMP180;11580;52.562;13.418;2023-08-01T00:51:05;99183.00;;;22.50
22828;BMP180;11580;52.562;13.418;2023-08-01T00:53:32;99183.00;;;22.40
22828;BMP180;11580;52.562;13.418;2023-08-01T00:56:00;99173.00;;;22.40
22828;BMP180;11580;52.562;13.418;2023-08-01T00:58:28;99183.00;;;22.30
22828;BMP180;11580;52.562;13.418;2023-08-01T01:00:55;99190.00;;;22.30
22828;BMP180;11580;52.562;13.418;2023-08-01T01:03:24;99185.00;;;22.20
22828;BMP180;11580;52.562;13.418;2023-08-01T01:06:08;99173.00;;;22.20
22828;BMP180;11580;52.562;13.418;2023-08-01T01:08:36;99176.00;;;22.20
22828;BMP180;11580;52.562;13.418;2023-08-01T01:11:03;99169.00;;;22.10
22828;BMP180;11580;52.562;13.418;2023-08-01T01:13:31;99167.00;;;22.10
22828;BMP180;11580;52.562;13.418;2023-08-01T01:15:58;99168.00;;;22.10
22828;BMP180;11580;52.562;13.418;2023-08-01T01:18:26;99166.00;;;22.10
22828;BMP180;11580;52.562;13.418;2023-08-01T01:20:55;99155.00;;;22.10
22828;BMP180;11580;52.562;13.418;2023-08-01T01:23:22;99147.00;;;22.10
22828;BMP180;11580;52.562;13.418;2023-08-01T01:25:52;99130.00;;;22.10
22828;BMP180;11580;52.562;13.418;2023-08-01T01:28:20;99114.00;;;22.10
22828;BMP180;11580;52.562;13.418;2023-08-01T01:30:49;99094.00;;;22.10
22828;BMP180;11580;52.562;13.418;2023-08-01T01:33:17;99096.00;;;22.10
22828;BMP180;11580;52.562;13.418;2023-08-01T01:35:44;99101.00;;;22.10
22828;BMP180;11580;52.562;13.418;2023-08-01T01:38:13;99089.00;;;22.00
22828;BMP180;11580;52.562;13.418;2023-08-01T01:40:40;99088.00;;;22.00
22828;BMP180;11580;52.562;13.418;2023-08-01T01:43:07;99101.00;;;22.00
22828;BMP180;11580;52.562;13.418;2023-08-01T01:45:34;99104.00;;;22.00
22828;BMP180;11580;52.562;13.418;2023-08-01T01:48:01;99088.00;;;22.00
22828;BMP180;11580;52.562;13.418;2023-08-01T01:50:28;99093.00;;;22.00
22828;BMP180;11580;52.562;13.418;2023-08-01T01:52:55;99095.00;;;22.00
22828;BMP180;11580;52.562;13.418;2023-08-01T01:55:24;99093.00;;;22.00
22828;BMP180;11580;52.562;13.418;2023-08-01T01:57:51;99102.00;;;22.00
22828;BMP180;11580;52.562;13.418;2023-08-01T02:00:19;99080.00;;;22.00
22828;BMP180;11580;52.562;13.418;2023-08-01T02:02:46;99074.00;;;22.00
22828;BMP180;11580;52.562;13.418;2023-08-01T02:05:13;99057.00;;;22.00
22828;BMP180;11580;52.562;13.418;2023-08-01T02:07:40;99060.00;;;22.00
22828;BMP180;11580;52.562;13.418;2023-08-01T02:10:08;99047.00;;;22.00
22828;BMP180;11580;52.562;13.418;2023-08-01T02:12:37;99040.00;;;22.00
22828;BMP180;11580;52.562;13.418;2023-08-01T02:15:05;99022.00;;;22.00
22828;BMP180;11580;52.562;13.418;2023-08-01T02:17:32;99033.00;;;22.00
22828;BMP180;11580;52.562;13.418;2023-08-01T02:20:00;99032.00;;;22.00
22828;BMP180;11580;52.562;13.418;2023-08-01T02:22:27;99029.00;;;22.00
22828;BMP180;11580;52.562;13.418;2023-08-01T02:24:54;99031.00;;;22.00
22828;BMP180;11580;52.562;13.418;2023-08-01T02:27:21;99016.00;;;22.00
22828;BMP180;11580;52.562;13.418;2023-08-01T02:29:50;99014.00;;;22.10
22828;BMP180;11580;52.562;13.418;2023-08-01T02:32:18;99021.00;;;22.10
22828;BMP180;11580;52.562;13.418;2023-08-01T02:34:45;99018.00;;;22.10
22828;BMP180;11580;52.562;13.418;2023-08-01T02:37:12;99025.00;;;22.10
22828;BMP180;11580;52.562;13.418;2023-08-01T02:39:39;99011.00;;;22.10
22828;BMP180;11580;52.562;13.418;2023-08-01T02:42:06;99020.00;;;22.10
22828;BMP180;11580;52.562;13.418;2023-08-01T02:44:34;99009.00;;;22.10
22828;BMP180;11580;52.562;13.418;2023-08-01T02:47:03;99006.00;;;22.10
22828;BMP180;11580;52.562;13.418;2023-08-01T02:49:32;99004.00;;;22.10
22828;BMP180;11580;52.562;13.418;2023-08-01T02:51:59;99007.00;;;22.10
22828;BMP180;11580;52.562;13.418;2023-08-01T02:54:26;98999.00;;;22.10
22828;BMP180;11580;52.562;13.418;2023-08-01T02:56:53;98991.00;;;22.10
22828;BMP180;11580;52.562;13.418;2023-08-01T02:59:20;98987.00;;;22.10
22828;BMP180;11580;52.562;13.418;2023-08-01T03:01:47;98984.00;;;22.10
22828;BMP180;11580;52.562;13.418;2023-08-01T03:04:16;98981.00;;;22.10
22828;BMP180;11580;52.562;13.418;2023-08-01T03:06:43;98978.00;;;22.10
22828;BMP180;11580;52.562;13.418;2023-08-01T03:09:11;98985.00;;;22.10
22828;BMP180;11580;52.562;13.418;2023-08-01T03:11:38;98984.00;;;22.10
22828;BMP180;11580;52.562;13.418;2023-08-01T03:14:05;98979.00;;;22.10
22828;BMP180;11580;52.562;13.418;2023-08-01T03:16:33;98975.00;;;22.20
22828;BMP180;11580;52.562;13.418;2023-08-01T03:19:00;98968.00;;;22.20
22828;BMP180;11580;52.562;13.418;2023-08-01T03:21:33;98960.00;;;22.20
22828;BMP180;11580;52.562;13.418;2023-08-01T03:24:01;98962.00;;;22.20
22828;BMP180;11580;52.562;13.418;2023-08-01T03:26:28;98963.00;;;22.20
22828;BMP180;11580;52.562;13.418;2023-08-01T03:28:56;98950.00;;;22.20
22828;BMP180;11580;52.562;13.418;2023-08-01T03:31:23;98951.00;;;22.20
22828;BMP180;11580;52.562;13.418;2023-08-01T03:33:50;98951.00;;;22.20
22828;BMP180;11580;52.562;13.418;2023-08-01T03:36:17;98945.00;;;22.20
22828;BMP180;11580;52.562;13.418;2023-08-01T03:38:46;98949.00;;;22.20
22828;BMP180;11580;52.562;13.418;2023-08-01T03:41:14;98936.00;;;22.20
22828;BMP180;11580;52.562;13.418;2023-08-01T03:43:41;98940.00;;;22.10
22828;BMP180;11580;52.562;13.418;2023-08-01T03:46:09;98944.00;;;22.10
22828;BMP180;11580;52.562;13.418;2023-08-01T03:48:36;98945.00;;;22.10
22828;BMP180;11580;52.562;13.418;2023-08-01T03:51:03;98944.00;;;22.10
22828;BMP180;11580;52.562;13.418;2023-08-01T03:53:30;98938.00;;;22.10
22828;BMP180;11580;52.562;13.418;2023-08-01T03:55:59;98931.00;;;22.10
22828;BMP180;11580;52.562;13.418;2023-08-01T03:58:26;98935.00;;;22.10
22828;BMP180;11580;52.562;13.418;2023-08-01T04:00:53;98931.00;;;22.10
22828;BMP180;11580;52.562;13.418;2023-08-01T04:03:20;98938.00;;;22.10
22828;BMP180;11580;52.562;13.418;2023-08-01T04:05:48;98934.00;;;22.10
22828;BMP180;11580;52.562;13.418;2023-08-01T04:08:15;98936.00;;;22.20
22828;BMP180;11580;52.562;13.418;2023-08-01T04:10:42;98928.00;;;22.20
22828;BMP180;11580;52.562;13.418;2023-08-01T04:13:11;98921.00;;;22.20
22828;BMP180;11580;52.562;13.418;2023-08-01T04:15:38;98915.00;;;22.30
22828;BMP180;11580;52.562;13.418;2023-08-01T04:18:05;98931.00;;;22.40
22828;BMP180;11580;52.562;13.418;2023-08-01T04:20:32;98923.00;;;22.40
22828;BMP180;11580;52.562;13.418;2023-08-01T04:22:59;98927.00;;;22.50
22828;BMP180;11580;52.562;13.418;2023-08-01T04:25:27;98922.00;;;22.50
22828;BMP180;11580;52.562;13.418;2023-08-01T04:27:54;98922.00;;;22.50
22828;BMP180;11580;52.562;13.418;2023-08-01T04:30:23;98925.00;;;22.60
22828;BMP180;11580;52.562;13.418;2023-08-01T04:32:50;98924.00;;;22.60
22828;BMP180;11580;52.562;13.418;2023-08-01T04:35:17;98919.00;;;22.70
22828;BMP180;11580;52.562;13.418;2023-08-01T04:37:44;98911.00;;;22.70
22828;BMP180;11580;52.562;13.418;2023-08-01T04:40:11;98915.00;;;22.70
22828;BMP180;11580;52.562;13.418;2023-08-01T04:42:38;98911.00;;;22.70
22828;BMP180;11580;52.562;13.418;2023-08-01T04:45:07;98908.00;;;22.80
22828;BMP180;11580;52.562;13.418;2023-08-01T04:47:36;98910.00;;;22.80
22828;BMP180;11580;52.562;13.418;2023-08-01T04:50:03;98912.00;;;22.80
22828;BMP180;11580;52.562;13.418;2023-08-01T04:52:31;98896.00;;;22.80
22828;BMP180;11580;52.562;13.418;2023-08-01T04:54:58;98896.00;;;22.90
22828;BMP180;11580;52.562;13.418;2023-08-01T04:57:25;98881.00;;;22.90
22828;BMP180;11580;52.562;13.418;2023-08-01T04:59:52;98878.00;;;22.90
22828;BMP180;11580;52.562;13.418;2023-08-01T05:02:19;98880.00;;;22.90
22828;BMP180;11580;52.562;13.418;2023-08-01T05:04:47;98892.00;;;22.90
22828;BMP180;11580;52.562;13.418;2023-08-01T05:07:15;98874.00;;;23.00
22828;BMP180;11580;52.562;13.418;2023-08-01T05:09:42;98873.00;;;23.00
22828;BMP180;11580;52.562;13.418;2023-08-01T05:12:09;98874.00;;;23.00
22828;BMP180;11580;52.562;13.418;2023-08-01T05:14:36;98873.00;;;23.00
22828;BMP180;11580;52.562;13.418;2023-08-01T05:17:04;98870.00;;;23.10
22828;BMP180;11580;52.562;13.418;2023-08-01T05:19:31;98862.00;;;23.10
22828;BMP180;11580;52.562;13.418;2023-08-01T05:22:00;98858.00;;;23.10
22828;BMP180;11580;52.562;13.418;2023-08-01T05:24:27;98848.00;;;23.20
22828;BMP180;11580;52.562;13.418;2023-08-01T05:26:54;98856.00;;;23.20
22828;BMP180;11580;52.562;13.418;2023-08-01T05:29:21;98853.00;;;23.30
22828;BMP180;11580;52.562;13.418;2023-08-01T05:31:48;98847.00;;;23.30
22828;BMP180;11580;52.562;13.418;2023-08-01T05:34:15;98846.00;;;23.30
22828;BMP180;11580;52.562;13.418;2023-08-01T05:36:42;98842.00;;;23.40
22828;BMP180;11580;52.562;13.418;2023-08-01T05:39:11;98839.00;;;23.40
22828;BMP180;11580;52.562;13.418;2023-08-01T05:41:38;98844.00;;;23.50
22828;BMP180;11580;52.562;13.418;2023-08-01T05:44:05;98848.00;;;23.50
22828;BMP180;11580;52.562;13.418;2023-08-01T05:46:32;98837.00;;;23.60
22828;BMP180;11580;52.562;13.418;2023-08-01T05:48:59;98838.00;;;23.60
22828;BMP180;11580;52.562;13.418;2023-08-01T05:51:26;98842.00;;;23.60
22828;BMP180;11580;52.562;13.418;2023-08-01T05:53:53;98835.00;;;23.70
22828;BMP180;11580;52.562;13.418;2023-08-01T05:56:22;98837.00;;;23.70
22828;BMP180;11580;52.562;13.418;2023-08-01T05:58:49;98837.00;;;23.70
22828;BMP180;11580;52.562;13.418;2023-08-01T06:01:17;98835.00;;;23.70
22828;BMP180;11580;52.562;13.418;2023-08-01T06:03:45;98830.00;;;23.80
22828;BMP180;11580;52.562;13.418;2023-08-01T06:06:12;98834.00;;;23.80
22828;BMP180;11580;52.562;13.418;2023-08-01T06:08:39;98836.00;;;23.80
22828;BMP180;11580;52.562;13.418;2023-08-01T06:11:06;98834.00;;;23.80
22828;BMP180;11580;52.562;13.418;2023-08-01T06:13:35;98837.00;;;23.90
22828;BMP180;11580;52.562;13.418;2023-08-01T06:16:02;98834.00;;;23.90
22828;BMP180;11580;52.562;13.418;2023-08-01T06:18:29;98836.00;;;23.90
22828;BMP180;11580;52.562;13.418;2023-08-01T06:20:57;98846.00;;;23.90
22828;BMP180;11580;52.562;13.418;2023-08-01T06:23:24;98826.00;;;23.90
22828;BMP180;11580;52.562;13.418;2023-08-01T06:25:51;98823.00;;;24.00
22828;BMP180;11580;52.562;13.418;2023-08-01T06:28:18;98839.00;;;24.00
22828;BMP180;11580;52.562;13.418;2023-08-01T06:30:47;98832.00;;;24.00
22828;BMP180;11580;52.562;13.418;2023-08-01T06:33:14;98836.00;;;24.00
22828;BMP180;11580;52.562;13.418;2023-08-01T06:35:41;98834.00;;;24.10
22828;BMP180;11580;52.562;13.418;2023-08-01T06:38:08;98827.00;;;24.10
22828;BMP180;11580;52.562;13.418;2023-08-01T06:40:35;98826.00;;;24.10
22828;BMP180;11580;52.562;13.418;2023-08-01T06:43:02;98826.00;;;24.20
22828;BMP180;11580;52.562;13.418;2023-08-01T06:45:29;98827.00;;;24.20
22828;BMP180;11580;52.562;13.418;2023-08-01T06:47:58;98830.00;;;24.20
22828;BMP180;11580;52.562;13.418;2023-08-01T06:50:25;98829.00;;;24.20
22828;BMP180;11580;52.562;13.418;2023-08-01T06:52:52;98831.00;;;24.20
22828;BMP180;11580;52.562;13.418;2023-08-01T06:55:19;98822.00;;;24.20
22828;BMP180;11580;52.562;13.418;2023-08-01T06:57:46;98826.00;;;24.20
22828;BMP180;11580;52.562;13.418;2023-08-01T07:00:14;98829.00;;;24.30
22828;BMP180;11580;52.562;13.418;2023-08-01T07:02:42;98828.00;;;24.30
22828;BMP180;11580;52.562;13.418;2023-08-01T07:05:10;98826.00;;;24.30
22828;BMP180;11580;52.562;13.418;2023-08-01T07:07:37;98829.00;;;24.30
22828;BMP180;11580;52.562;13.418;2023-08-01T07:10:06;98825.00;;;24.40
22828;BMP180;11580;52.562;13.418;2023-08-01T07:12:33;98830.00;;;24.40
22828;BMP180;11580;52.562;13.418;2023-08-01T07:15:00;98833.00;;;24.40
22828;BMP180;11580;52.562;13.418;2023-08-01T07:17:28;98821.00;;;24.50
22828;BMP180;11580;52.562;13.418;2023-08-01T07:19:55;98819.00;;;24.60
22828;BMP180;11580;52.562;13.418;2023-08-01T07:22:23;98823.00;;;24.70
22828;BMP180;11580;52.562;13.418;2023-08-01T07:24:53;98810.00;;;24.80
22828;BMP180;11580;52.562;13.418;2023-08-01T07:27:20;98826.00;;;24.90
22828;BMP180;11580;52.562;13.418;2023-08-01T07:29:48;98825.00;;;25.00
22828;BMP180;11580;52.562;13.418;2023-08-01T07:32:15;98818.00;;;25.10
22828;BMP180;11580;52.562;13.418;2023-08-01T07:34:42;98814.00;;;25.20
22828;BMP180;11580;52.562;13.418;2023-08-01T07:37:09;98796.00;;;25.40
22828;BMP180;11580;52.562;13.418;2023-08-01T07:39:37;98795.00;;;25.50
22828;BMP180;11580;52.562;13.418;2023-08-01T07:42:05;98787.00;;;25.60
22828;BMP180;11580;52.562;13.418;2023-08-01T07:44:32;98784.00;;;25.80
22828;BMP180;11580;52.562;13.418;2023-08-01T07:46:59;98802.00;;;26.00
22828;BMP180;11580;52.562;13.418;2023-08-01T07:49:26;98796.00;;;26.10
22828;BMP180;11580;52.562;13.418;2023-08-01T07:51:53;98800.00;;;26.30
22828;BMP180;11580;52.562;13.418;2023-08-01T07:54:20;98788.00;;;26.40
22828;BMP180;11580;52.562;13.418;2023-08-01T07:56:49;98783.00;;;26.60
22828;BMP180;11580;52.562;13.418;2023-08-01T07:59:16;98793.00;;;26.70
22828;BMP180;11580;52.562;13.418;2023-08-01T08:01:43;98792.00;;;26.90
22828;BMP180;11580;52.562;13.418;2023-08-01T08:04:10;98801.00;;;27.00
22828;BMP180;11580;52.562;13.418;2023-08-01T08:06:38;98810.00;;;27.10
22828;BMP180;11580;52.562;13.418;2023-08-01T08:09:06;98811.00;;;27.20
22828;BMP180;11580;52.562;13.418;2023-08-01T08:11:33;98807.00;;;27.40
22828;BMP180;11580;52.562;13.418;2023-08-01T08:14:01;98814.00;;;27.50
22828;BMP180;11580;52.562;13.418;2023-08-01T08:16:28;98817.00;;;27.60
22828;BMP180;11580;52.562;13.418;2023-08-01T08:18:55;98817.00;;;27.70
22828;BMP180;11580;52.562;13.418;2023-08-01T08:21:22;98826.00;;;27.90
22828;BMP180;11580;52.562;13.418;2023-08-01T08:23:50;98820.00;;;27.90
22828;BMP180;11580;52.562;13.418;2023-08-01T08:26:17;98826.00;;;28.00
22828;BMP180;11580;52.562;13.418;2023-08-01T08:28:44;98823.00;;;28.00
22828;BMP180;11580;52.562;13.418;2023-08-01T08:31:12;98809.00;;;28.00
22828;BMP180;11580;52.562;13.418;2023-08-01T08:33:39;98826.00;;;28.00
22828;BMP180;11580;52.562;13.418;2023-08-01T08:36:06;98816.00;;;28.00
22828;BMP180;11580;52.562;13.418;2023-08-01T08:38:34;98819.00;;;28.00
22828;BMP180;11580;52.562;13.418;2023-08-01T08:41:08;98815.00;;;28.00
22828;BMP180;11580;52.562;13.418;2023-08-01T08:43:36;98817.00;;;28.10
22828;BMP180;11580;52.562;13.418;2023-08-01T08:46:05;98811.00;;;28.20
22828;BMP180;11580;52.562;13.418;2023-08-01T08:48:35;98818.00;;;28.30
22828;BMP180;11580;52.562;13.418;2023-08-01T08:51:02;98816.00;;;28.50
22828;BMP180;11580;52.562;13.418;2023-08-01T08:53:31;98815.00;;;28.60
22828;BMP180;11580;52.562;13.418;2023-08-01T08:56:00;98815.00;;;28.80
22828;BMP180;11580;52.562;13.418;2023-08-01T08:58:29;98812.00;;;28.90
22828;BMP180;11580;52.562;13.418;2023-08-01T09:00:58;98814.00;;;29.00
22828;BMP180;11580;52.562;13.418;2023-08-01T09:03:26;98807.00;;;29.00
22828;BMP180;11580;52.562;13.418;2023-08-01T09:06:04;98815.00;;;29.10
22828;BMP180;11580;52.562;13.418;2023-08-01T09:08:36;98808.00;;;29.00
22828;BMP180;11580;52.562;13.418;2023-08-01T09:11:04;98801.00;;;29.00
22828;BMP180;11580;52.562;13.418;2023-08-01T09:13:31;98802.00;;;29.00
22828;BMP180;11580;52.562;13.418;2023-08-01T09:16:01;98797.00;;;29.00
22828;BMP180;11580;52.562;13.418;2023-08-01T09:18:28;98785.00;;;29.00
22828;BMP180;11580;52.562;13.418;2023-08-01T09:20:59;98786.00;;;29.10
22828;BMP180;11580;52.562;13.418;2023-08-01T09:23:28;98784.00;;;29.20
22828;BMP180;11580;52.562;13.418;2023-08-01T09:25:56;98783.00;;;29.40
22828;BMP180;11580;52.562;13.418;2023-08-01T09:28:24;98788.00;;;29.60
22828;BMP180;11580;52.562;13.418;2023-08-01T09:30:55;98791.00;;;29.80
22828;BMP180;11580;52.562;13.418;2023-08-01T09:33:23;98783.00;;;29.90
22828;BMP180;11580;52.562;13.418;2023-08-01T09:35:51;98784.00;;;29.90
22828;BMP180;11580;52.562;13.418;2023-08-01T09:38:20;98786.00;;;29.90
22828;BMP180;11580;52.562;13.418;2023-08-01T09:40:47;98782.00;;;29.90
22828;BMP180;11580;52.562;13.418;2023-08-01T09:43:15;98785.00;;;29.80
22828;BMP180;11580;52.562;13.418;2023-08-01T09:45:53;98798.00;;;29.70
22828;BMP180;11580;52.562;13.418;2023-08-01T09:48:25;98799.00;;;29.60
22828;BMP180;11580;52.562;13.418;2023-08-01T09:51:04;98799.00;;;29.40
22828;BMP180;11580;52.562;13.418;2023-08-01T09:53:34;98807.00;;;29.30
22828;BMP180;11580;52.562;13.418;2023-08-01T09:56:02;98814.00;;;29.10
22828;BMP180;11580;52.562;13.418;2023-08-01T09:58:33;98807.00;;;29.00
22828;BMP180;11580;52.562;13.418;2023-08-01T10:01:01;98800.00;;;28.80
22828;BMP180;11580;52.562;13.418;2023-08-01T10:03:29;98800.00;;;28.70
22828;BMP180;11580;52.562;13.418;2023-08-01T10:05:58;98796.00;;;28.60
22828;BMP180;11580;52.562;13.418;2023-08-01T10:08:26;98808.00;;;28.50
22828;BMP180;11580;52.562;13.418;2023-08-01T10:10:55;98791.00;;;28.50
22828;BMP180;11580;52.562;13.418;2023-08-01T10:13:24;98791.00;;;28.40
22828;BMP180;11580;52.562;13.418;2023-08-01T10:15:52;98791.00;;;28.30
22828;BMP180;11580;52.562;13.418;2023-08-01T10:18:20;98785.00;;;28.30
22828;BMP180;11580;52.562;13.418;2023-08-01T10:20:49;98793.00;;;28.10
22828;BMP180;11580;52.562;13.418;2023-08-01T10:23:17;98792.00;;;28.00
22828;BMP180;11580;52.562;13.418;2023-08-01T10:25:46;98787.00;;;27.90
22828;BMP180;11580;52.562;13.418;2023-08-01T10:28:14;98787.00;;;27.70
22828;BMP180;11580;52.562;13.418;2023-08-01T10:30:42;98782.00;;;27.60
22828;BMP180;11580;52.562;13.418;2023-08-01T10:33:09;98780.00;;;27.50
22828;BMP180;11580;52.562;13.418;2023-08-01T10:35:39;98777.00;;;27.50
22828;BMP180;11580;52.562;13.418;2023-08-01T10:38:09;98775.00;;;27.40
22828;BMP180;11580;52.562;13.418;2023-08-01T10:40:38;98787.00;;;27.30
22828;BMP180;11580;52.562;13.418;2023-08-01T10:43:06;98787.00;;;27.20
22828;BMP180;11580;52.562;13.418;2023-08-01T10:45:46;98797.00;;;27.00
22828;BMP180;11580;52.562;13.418;2023-08-01T10:48:14;98823.00;;;26.80
22828;BMP180;11580;52.562;13.418;2023-08-01T10:50:41;98826.00;;;26.50
22828;BMP180;11580;52.562;13.418;2023-08-01T10:53:09;98814.00;;;26.30
22828;BMP180;11580;52.562;13.418;2023-08-01T10:55:45;98823.00;;;26.00
22828;BMP180;11580;52.562;13.418;2023-08-01T10:58:12;98825.00;;;25.80
22828;BMP180;11580;52.562;13.418;2023-08-01T11:00:42;98823.00;;;25.50
22828;BMP180;11580;52.562;13.418;2023-08-01T11:03:10;98832.00;;;25.30
22828;BMP180;11580;52.562;13.418;2023-08-01T11:05:38;98833.00;;;25.20
22828;BMP180;11580;52.562;13.418;2023-08-01T11:08:05;98833.00;;;25.00
22828;BMP180;11580;52.562;13.418;2023-08-01T11:10:32;98838.00;;;24.90
22828;BMP180;11580;52.562;13.418;2023-08-01T11:13:00;98836.00;;;24.80
22828;BMP180;11580;52.562;13.418;2023-08-01T11:15:27;98829.00;;;24.70
22828;BMP180;11580;52.562;13.418;2023-08-01T11:17:55;98835.00;;;24.60
22828;BMP180;11580;52.562;13.418;2023-08-01T11:20:25;98839.00;;;24.60
22828;BMP180;11580;52.562;13.418;2023-08-01T11:22:55;98845.00;;;24.60
22828;BMP180;11580;52.562;13.418;2023-08-01T11:25:34;98843.00;;;24.60
22828;BMP180;11580;52.562;13.418;2023-08-01T11:28:06;98843.00;;;24.60
22828;BMP180;11580;52.562;13.418;2023-08-01T11:30:34;98849.00;;;24.70
22828;BMP180;11580;52.562;13.418;2023-08-01T11:33:02;98843.00;;;24.80
22828;BMP180;11580;52.562;13.418;2023-08-01T11:35:32;98849.00;;;24.90
22828;BMP180;11580;52.562;13.418;2023-08-01T11:37:59;98846.00;;;25.00
22828;BMP180;11580;52.562;13.418;2023-08-01T11:40:26;98865.00;;;25.20
22828;BMP180;11580;52.562;13.418;2023-08-01T11:42:57;98856.00;;;25.30
22828;BMP180;11580;52.562;13.418;2023-08-01T11:45:24;98846.00;;;25.50
22828;BMP180;11580;52.562;13.418;2023-08-01T11:47:52;98843.00;;;25.70
22828;BMP180;11580;52.562;13.418;2023-08-01T11:50:24;98835.00;;;25.80
22828;BMP180;11580;52.562;13.418;2023-08-01T11:52:53;98852.00;;;26.00
22828;BMP180;11580;52.562;13.418;2023-08-01T11:55:23;98845.00;;;26.20
22828;BMP180;11580;52.562;13.418;2023-08-01T11:57:58;98846.00;;;26.40
22828;BMP180;11580;52.562;13.418;2023-08-01T12:00:27;98863.00;;;26.50
22828;BMP180;11580;52.562;13.418;2023-08-01T12:03:04;98861.00;;;26.80
22828;BMP180;11580;52.562;13.418;2023-08-01T12:05:32;98854.00;;;26.90
22828;BMP180;11580;52.562;13.418;2023-08-01T12:08:11;98852.00;;;27.10
22828;BMP180;11580;52.562;13.418;2023-08-01T12:10:40;98859.00;;;27.20
22828;BMP180;11580;52.562;13.418;2023-08-01T12:13:19;98869.00;;;27.40
22828;BMP180;11580;52.562;13.418;2023-08-01T12:15:46;98875.00;;;27.50
22828;BMP180;11580;52.562;13.418;2023-08-01T12:18:20;98868.00;;;27.70
22828;BMP180;11580;52.562;13.418;2023-08-01T12:20:48;98863.00;;;27.80
22828;BMP180;11580;52.562;13.418;2023-08-01T12:23:17;98878.00;;;27.90
22828;BMP180;11580;52.562;13.418;2023-08-01T12:25:44;98877.00;;;28.00
22828;BMP180;11580;52.562;13.418;2023-08-01T12:28:13;98871.00;;;28.10
22828;BMP180;11580;52.562;13.418;2023-08-01T12:30:41;98871.00;;;28.10
22828;BMP180;11580;52.562;13.418;2023-08-01T12:33:08;98880.00;;;28.10
22828;BMP180;11580;52.562;13.418;2023-08-01T12:35:39;98874.00;;;28.20
22828;BMP180;11580;52.562;13.418;2023-08-01T12:38:07;98880.00;;;28.20
22828;BMP180;11580;52.562;13.418;2023-08-01T12:40:35;98878.00;;;28.30
22828;BMP180;11580;52.562;13.418;2023-08-01T12:43:02;98879.00;;;28.20
22828;BMP180;11580;52.562;13.418;2023-08-01T12:45:30;98884.00;;;28.20
22828;BMP180;11580;52.562;13.418;2023-08-01T12:47:57;98883.00;;;28.20
22828;BMP180;11580;52.562;13.418;2023-08-01T12:50:25;98874.00;;;28.20
22828;BMP180;11580;52.562;13.418;2023-08-01T12:52:52;98887.00;;;28.20
22828;BMP180;11580;52.562;13.418;2023-08-01T12:55:20;98882.00;;;28.10
22828;BMP180;11580;52.562;13.418;2023-08-01T12:57:48;98879.00;;;28.10
22828;BMP180;11580;52.562;13.418;2023-08-01T13:00:16;98877.00;;;28.10
22828;BMP180;11580;52.562;13.418;2023-08-01T13:02:43;98887.00;;;28.00
22828;BMP180;11580;52.562;13.418;2023-08-01T13:05:10;98880.00;;;28.00
22828;BMP180;11580;52.562;13.418;2023-08-01T13:07:37;98879.00;;;28.10
22828;BMP180;11580;52.562;13.418;2023-08-01T13:10:06;98881.00;;;28.10
22828;BMP180;11580;52.562;13.418;2023-08-01T13:12:33;98879.00;;;28.20
22828;BMP180;11580;52.562;13.418;2023-08-01T13:15:01;98882.00;;;28.20
22828;BMP180;11580;52.562;13.418;2023-08-01T13:17:29;98884.00;;;28.30
22828;BMP180;11580;52.562;13.418;2023-08-01T13:19:56;98884.00;;;28.30
22828;BMP180;11580;52.562;13.418;2023-08-01T13:22:23;98883.00;;;28.30
22828;BMP180;11580;52.562;13.418;2023-08-01T13:24:50;98879.00;;;28.50
22828;BMP180;11580;52.562;13.418;2023-08-01T13:27:17;98897.00;;;28.60
22828;BMP180;11580;52.562;13.418;2023-08-01T13:29:44;98901.00;;;28.70
22828;BMP180;11580;52.562;13.418;2023-08-01T13:32:12;98896.00;;;28.80
22828;BMP180;11580;52.562;13.418;2023-08-01T13:34:39;98902.00;;;28.90
22828;BMP180;11580;52.562;13.418;2023-08-01T13:37:06;98895.00;;;29.00
22828;BMP180;11580;52.562;13.418;2023-08-01T13:39:34;98894.00;;;29.00
22828;BMP180;11580;52.562;13.418;2023-08-01T13:42:02;98897.00;;;29.00
22828;BMP180;11580;52.562;13.418;2023-08-01T13:44:29;98899.00;;;28.90
22828;BMP180;11580;52.562;13.418;2023-08-01T13:46:56;98897.00;;;28.90
22828;BMP180;11580;52.562;13.418;2023-08-01T13:49:25;98893.00;;;28.80
22828;BMP180;11580;52.562;13.418;2023-08-01T13:51:52;98893.00;;;28.80
22828;BMP180;11580;52.562;13.418;2023-08-01T13:54:19;98887.00;;;28.70
22828;BMP180;11580;52.562;13.418;2023-08-01T13:56:46;98902.00;;;28.70
22828;BMP180;11580;52.562;13.418;2023-08-01T13:59:13;98890.00;;;28.60
22828;BMP180;11580;52.562;13.418;2023-08-01T14:01:41;98896.00;;;28.60